createdAt,value
2023-02-02T00:01:30.151Z,2.00
2023-02-02T00:03:58.079Z,1.98
2023-02-02T00:06:29.172Z,1.97
2023-02-02T00:08:59.315Z,2.05
2023-02-02T00:11:27.359Z,2.11
2023-02-02T00:13:55.320Z,2.14
2023-02-02T00:16:29.075Z,2.20
2023-02-02T00:19:03.380Z,2.32
2023-02-02T00:21:30.808Z,2.35
2023-02-02T00:23:58.275Z,2.37
2023-02-02T00:26:26.375Z,2.34
2023-02-02T00:28:53.955Z,2.34
2023-02-02T00:31:22.812Z,2.35
2023-02-02T00:33:51.542Z,2.32
2023-02-02T00:36:20.229Z,2.32
2023-02-02T00:38:49.238Z,2.35
2023-02-02T00:41:17.320Z,2.40
2023-02-02T00:43:45.269Z,2.47
2023-02-02T00:46:18.972Z,2.49
2023-02-02T00:48:46.696Z,2.52
2023-02-02T00:51:13.978Z,2.56
2023-02-02T00:53:41.360Z,2.59
2023-02-02T00:56:08.724Z,2.60
2023-02-02T00:58:36.122Z,2.60
2023-02-02T01:01:03.848Z,2.65
2023-02-02T01:03:31.504Z,2.69
2023-02-02T01:05:58.848Z,2.71
2023-02-02T01:08:26.337Z,2.71
2023-02-02T01:10:53.642Z,2.72
2023-02-02T01:13:23.183Z,2.72
2023-02-02T01:15:56.940Z,2.73
2023-02-02T01:18:24.755Z,2.72
2023-02-02T01:21:05.576Z,2.72
2023-02-02T01:23:35.167Z,2.72
2023-02-02T01:26:07.914Z,2.77
2023-02-02T01:28:37.104Z,2.81
2023-02-02T01:31:12.746Z,2.86
2023-02-02T01:33:41.226Z,2.95
2023-02-02T01:36:13.645Z,3.00
2023-02-02T01:38:42.257Z,3.08
2023-02-02T01:41:16.701Z,3.10
2023-02-02T01:43:46.767Z,3.13
2023-02-02T01:46:20.742Z,3.15
2023-02-02T01:49:12.932Z,3.15
2023-02-02T01:51:47.971Z,3.15
2023-02-02T01:54:31.561Z,3.17
2023-02-02T01:57:09.618Z,3.20
2023-02-02T01:59:38.673Z,3.22
2023-02-02T02:02:07.543Z,3.26
2023-02-02T02:04:35.451Z,3.29
2023-02-02T02:07:05.423Z,3.32
2023-02-02T02:09:34.536Z,3.34
2023-02-02T02:12:02.518Z,3.36
2023-02-02T02:14:48.420Z,3.41
2023-02-02T02:17:49.210Z,3.45
2023-02-02T02:21:12.331Z,3.45
2023-02-02T02:24:27.286Z,3.50
2023-02-02T02:27:26.816Z,3.54
2023-02-02T02:30:12.240Z,3.56
2023-02-02T02:32:56.651Z,3.59
2023-02-02T02:35:41.469Z,3.59
2023-02-02T02:38:27.064Z,3.64
2023-02-02T02:41:03.627Z,3.61
2023-02-02T02:43:42.641Z,3.54
2023-02-02T02:46:12.152Z,3.46
2023-02-02T02:48:39.744Z,3.45
2023-02-02T02:51:35.785Z,3.43
2023-02-02T02:54:03.894Z,3.39
2023-02-02T02:56:58.153Z,3.32
2023-02-02T02:59:55.977Z,3.35
2023-02-02T03:02:47.227Z,3.32
2023-02-02T03:05:29.759Z,3.28
2023-02-02T03:08:31.706Z,3.24
2023-02-02T03:11:02.494Z,3.10
2023-02-02T03:13:32.085Z,3.00
2023-02-02T03:16:00.104Z,2.83
2023-02-02T03:18:31.115Z,2.68
2023-02-02T03:20:59.534Z,2.52
2023-02-02T03:23:27.687Z,2.38
2023-02-02T03:25:55.962Z,2.22
2023-02-02T03:28:25.520Z,2.19
2023-02-02T03:30:55.259Z,2.18
2023-02-02T03:33:23.355Z,2.13
2023-02-02T03:35:50.856Z,2.14
2023-02-02T03:38:18.405Z,2.10
2023-02-02T03:40:45.783Z,1.98
2023-02-02T03:43:13.076Z,1.87
2023-02-02T03:45:40.843Z,1.73
2023-02-02T03:48:08.299Z,1.64
2023-02-02T03:50:37.437Z,1.53
2023-02-02T03:53:05.230Z,1.46
2023-02-02T03:55:32.620Z,1.37
2023-02-02T03:57:59.984Z,1.30
2023-02-02T04:00:27.518Z,1.21
2023-02-02T04:02:55.096Z,1.08
2023-02-02T04:05:22.773Z,1.04
2023-02-02T04:07:50.419Z,1.04
2023-02-02T04:10:18.684Z,1.01
2023-02-02T04:12:46.156Z,1.03
2023-02-02T04:15:13.523Z,1.18
2023-02-02T04:17:40.859Z,1.22
2023-02-02T04:20:08.914Z,1.15
2023-02-02T04:22:36.345Z,1.10
2023-02-02T04:25:03.928Z,1.18
2023-02-02T04:27:33.867Z,1.25
2023-02-02T04:30:01.211Z,1.28
2023-02-02T04:32:28.556Z,1.34
2023-02-02T04:34:55.883Z,1.41
2023-02-02T04:37:23.335Z,1.52
2023-02-02T04:39:50.859Z,1.60
2023-02-02T04:42:18.375Z,1.74
2023-02-02T04:44:46.242Z,1.79
2023-02-02T04:47:13.670Z,1.81
2023-02-02T04:49:41.363Z,1.85
2023-02-02T04:52:11.472Z,1.91
2023-02-02T04:54:38.896Z,1.91
2023-02-02T04:57:06.190Z,1.89
2023-02-02T04:59:33.625Z,1.93
2023-02-02T05:02:02.219Z,1.89
2023-02-02T05:04:29.738Z,1.89
2023-02-02T05:06:57.031Z,1.86
2023-02-02T05:09:24.680Z,1.82
2023-02-02T05:11:51.972Z,1.86
2023-02-02T05:14:20.304Z,1.89
2023-02-02T05:16:47.738Z,1.89
2023-02-02T05:19:16.989Z,1.85
2023-02-02T05:21:45.342Z,1.86
2023-02-02T05:24:12.802Z,1.87
2023-02-02T05:26:40.237Z,1.85
2023-02-02T05:29:09.277Z,1.84
2023-02-02T05:31:36.821Z,1.87
2023-02-02T05:34:06.862Z,1.97
2023-02-02T05:36:35.487Z,2.01
2023-02-02T05:39:02.877Z,2.12
2023-02-02T05:41:30.408Z,2.21
2023-02-02T05:43:59.969Z,2.25
2023-02-02T05:46:27.855Z,2.27
2023-02-02T05:48:55.258Z,2.33
2023-02-02T05:51:29.557Z,2.33
2023-02-02T05:53:57.256Z,2.26
2023-02-02T05:56:24.764Z,2.31
2023-02-02T05:58:52.215Z,2.36
2023-02-02T06:01:21.633Z,2.40
2023-02-02T06:03:49.108Z,2.58
2023-02-02T06:06:16.667Z,2.71
2023-02-02T06:08:44.039Z,2.85
2023-02-02T06:11:13.964Z,3.92
2023-02-02T06:13:42.572Z,4.98
2023-02-02T06:16:11.226Z,4.93
2023-02-02T06:18:38.822Z,5.57
2023-02-02T06:21:07.099Z,5.69
2023-02-02T06:23:35.122Z,5.46
2023-02-02T06:26:04.386Z,6.67
2023-02-02T06:28:32.230Z,7.43
2023-02-02T06:31:07.570Z,8.19
2023-02-02T06:33:35.543Z,8.65
2023-02-02T06:36:06.498Z,9.48
2023-02-02T06:38:34.026Z,10.26
2023-02-02T06:41:03.156Z,11.44
2023-02-02T06:43:31.023Z,11.84
2023-02-02T06:45:58.808Z,11.89
2023-02-02T06:48:27.139Z,12.05
2023-02-02T06:50:57.469Z,11.03
2023-02-02T06:53:26.590Z,10.33
2023-02-02T06:56:01.215Z,8.33
2023-02-02T06:58:31.213Z,8.33
2023-02-02T07:01:13.844Z,11.16
2023-02-02T07:03:41.811Z,13.81
2023-02-02T07:06:22.740Z,15.67
2023-02-02T07:09:01.789Z,17.38
2023-02-02T07:11:35.217Z,13.72
2023-02-02T07:14:04.564Z,11.44
2023-02-02T07:16:32.561Z,10.33
2023-02-02T07:18:59.912Z,11.84
2023-02-02T07:21:35.794Z,16.05
2023-02-02T07:24:05.711Z,12.07
2023-02-02T07:26:35.960Z,10.37
2023-02-02T07:29:04.604Z,9.73
2023-02-02T07:31:34.799Z,11.71
2023-02-02T07:34:03.468Z,14.89
2023-02-02T07:36:30.804Z,16.44
2023-02-02T07:38:58.468Z,17.96
2023-02-02T07:41:25.839Z,19.28
2023-02-02T07:43:53.267Z,20.46
2023-02-02T07:46:21.032Z,21.03
2023-02-02T07:48:49.135Z,22.08
2023-02-02T07:51:18.205Z,21.67
2023-02-02T07:53:48.618Z,19.42
2023-02-02T07:56:25.867Z,15.95
2023-02-02T07:58:55.337Z,13.54
2023-02-02T08:01:26.324Z,11.80
2023-02-02T08:03:56.385Z,10.88
2023-02-02T08:06:31.458Z,10.52
2023-02-02T08:09:00.499Z,10.15
2023-02-02T08:11:29.376Z,9.33
2023-02-02T08:14:00.051Z,9.08
2023-02-02T08:16:30.071Z,8.73
2023-02-02T08:18:58.716Z,8.01
2023-02-02T08:21:26.636Z,7.62
2023-02-02T08:23:54.627Z,7.39
2023-02-02T08:26:29.001Z,7.49
2023-02-02T08:29:05.661Z,7.28
2023-02-02T08:31:38.123Z,7.09
2023-02-02T08:34:05.827Z,7.34
2023-02-02T08:36:36.943Z,8.30
2023-02-02T08:39:10.001Z,9.26
2023-02-02T08:41:39.333Z,9.29
2023-02-02T08:44:11.328Z,8.57
2023-02-02T08:46:39.134Z,8.00
2023-02-02T08:49:07.065Z,7.70
2023-02-02T08:51:34.566Z,7.31
2023-02-02T08:54:01.955Z,7.08
2023-02-02T08:56:29.262Z,6.85
2023-02-02T08:58:58.748Z,6.76
2023-02-02T09:01:29.578Z,6.47
2023-02-02T09:04:01.347Z,6.37
2023-02-02T09:06:40.935Z,6.01
2023-02-02T09:09:13.281Z,5.91
2023-02-02T09:11:41.605Z,6.02
2023-02-02T09:14:12.506Z,6.35
2023-02-02T09:16:40.681Z,6.42
2023-02-02T09:19:08.455Z,6.26
2023-02-02T09:21:37.235Z,6.25
2023-02-02T09:24:11.825Z,6.28
2023-02-02T09:26:40.562Z,6.23
2023-02-02T09:29:13.386Z,6.44
2023-02-02T09:31:40.931Z,6.46
2023-02-02T09:34:12.257Z,6.30
2023-02-02T09:36:41.584Z,6.27
2023-02-02T09:39:12.763Z,6.29
2023-02-02T09:41:40.573Z,6.18
2023-02-02T09:45:10.633Z,6.08
2023-02-02T09:48:02.189Z,6.12
2023-02-02T09:50:46.463Z,6.29
2023-02-02T09:53:20.231Z,6.26
2023-02-02T09:55:56.999Z,6.08
2023-02-02T09:58:51.181Z,6.12
2023-02-02T10:01:27.033Z,6.30
2023-02-02T10:04:15.819Z,6.23
2023-02-02T10:06:48.989Z,6.12
2023-02-02T10:09:48.152Z,5.97
2023-02-02T10:12:32.082Z,5.84
2023-02-02T10:15:25.806Z,5.87
2023-02-02T10:18:20.965Z,5.92
2023-02-02T10:21:05.036Z,6.01
2023-02-02T10:23:40.103Z,6.00
2023-02-02T10:26:25.917Z,6.17
2023-02-02T10:29:26.306Z,6.24
2023-02-02T10:32:23.907Z,6.38
2023-02-02T10:35:11.091Z,6.20
2023-02-02T10:37:58.103Z,6.48
2023-02-02T10:41:07.305Z,6.54
2023-02-02T10:44:29.920Z,6.54
2023-02-02T10:47:03.969Z,7.10
2023-02-02T10:49:36.737Z,7.28
2023-02-02T10:52:11.050Z,7.22
2023-02-02T10:55:14.743Z,7.36
2023-02-02T10:58:12.020Z,7.20
2023-02-02T11:00:46.267Z,6.66
2023-02-02T11:03:17.808Z,6.27
2023-02-02T11:06:04.641Z,5.91
2023-02-02T11:08:46.341Z,5.63
2023-02-02T11:11:40.198Z,5.28
2023-02-02T11:14:07.605Z,5.34
2023-02-02T11:16:46.431Z,5.49
2023-02-02T11:19:19.810Z,5.51
2023-02-02T11:21:54.137Z,5.53
2023-02-02T11:24:39.020Z,5.54
2023-02-02T11:27:27.626Z,5.56
2023-02-02T11:29:59.384Z,5.59
2023-02-02T11:32:30.166Z,5.66
2023-02-02T11:35:20.809Z,5.66
2023-02-02T11:38:15.752Z,5.58
2023-02-02T11:40:55.495Z,5.71
2023-02-02T11:43:41.095Z,5.93
2023-02-02T11:46:21.089Z,6.19
2023-02-02T11:49:04.368Z,6.35
2023-02-02T11:51:32.742Z,6.47
2023-02-02T11:54:30.514Z,6.74
2023-02-02T11:57:02.761Z,6.85
2023-02-02T11:59:38.228Z,6.92
2023-02-02T12:02:29.533Z,7.18
2023-02-02T12:05:35.086Z,7.25
2023-02-02T12:08:02.473Z,7.30
2023-02-02T12:10:44.149Z,7.37
2023-02-02T12:13:52.155Z,7.45
2023-02-02T12:16:36.045Z,7.57
2023-02-02T12:19:28.388Z,7.62
2023-02-02T12:22:29.609Z,7.55
2023-02-02T12:25:15.282Z,7.32
2023-02-02T12:27:57.402Z,7.43
2023-02-02T12:30:59.277Z,7.55
2023-02-02T12:34:04.611Z,8.10
2023-02-02T12:37:02.715Z,8.40
2023-02-02T12:39:45.309Z,8.46
2023-02-02T12:42:48.596Z,8.64
2023-02-02T12:45:51.648Z,8.63
2023-02-02T12:49:11.054Z,8.62
2023-02-02T12:52:23.419Z,8.67
2023-02-02T12:54:57.437Z,8.27
2023-02-02T12:57:37.029Z,8.03
2023-02-02T13:00:35.308Z,8.15
2023-02-02T13:03:21.389Z,8.14
2023-02-02T13:06:22.797Z,8.25
2023-02-02T13:09:03.317Z,8.19
2023-02-02T13:11:49.781Z,8.09
2023-02-02T13:14:23.639Z,8.09
2023-02-02T13:16:59.461Z,8.14
2023-02-02T13:19:35.512Z,8.41
2023-02-02T13:22:10.300Z,8.41
2023-02-02T13:24:42.532Z,8.26
2023-02-02T13:27:17.786Z,8.38
2023-02-02T13:29:57.692Z,8.50
2023-02-02T13:32:38.215Z,8.22
2023-02-02T13:35:17.822Z,8.31
2023-02-02T13:38:10.122Z,8.02
2023-02-02T13:40:41.195Z,7.94
2023-02-02T13:43:39.196Z,7.87
2023-02-02T13:46:27.776Z,7.82
2023-02-02T13:49:15.101Z,7.80
2023-02-02T13:52:07.959Z,7.67
2023-02-02T13:55:32.514Z,7.69
2023-02-02T13:58:29.829Z,7.71
2023-02-02T14:01:05.902Z,7.45
2023-02-02T14:03:51.230Z,7.34
2023-02-02T14:06:22.465Z,7.37
2023-02-02T14:08:57.168Z,7.27
2023-02-02T14:12:02.743Z,7.16
2023-02-02T14:14:34.473Z,7.13
2023-02-02T14:17:33.498Z,7.02
2023-02-02T14:20:04.178Z,7.06
2023-02-02T14:22:52.490Z,7.09
2023-02-02T14:25:47.633Z,7.11
2023-02-02T14:28:47.675Z,7.12
2023-02-02T14:31:36.395Z,7.16
2023-02-02T14:34:34.997Z,6.98
2023-02-02T14:37:14.557Z,6.97
2023-02-02T14:40:03.217Z,6.90
2023-02-02T14:43:39.026Z,6.87
2023-02-02T14:46:15.347Z,6.81
2023-02-02T14:49:02.972Z,6.77
2023-02-02T14:51:34.887Z,6.71
2023-02-02T14:54:07.423Z,6.71
2023-02-02T14:56:52.933Z,6.65
2023-02-02T14:59:38.576Z,6.66
2023-02-02T15:02:19.966Z,6.62
2023-02-02T15:04:49.024Z,6.59
2023-02-02T15:07:25.463Z,6.56
2023-02-02T15:09:58.222Z,6.57
2023-02-02T15:12:33.956Z,6.59
2023-02-02T15:15:10.728Z,6.56
2023-02-02T15:17:41.032Z,6.54
2023-02-02T15:20:23.381Z,6.57
2023-02-02T15:23:22.358Z,6.55
2023-02-02T15:26:05.814Z,6.53
2023-02-02T15:28:43.421Z,6.47
2023-02-02T15:31:20.578Z,6.44
2023-02-02T15:33:54.001Z,6.39
2023-02-02T15:36:28.774Z,6.35
2023-02-02T15:39:02.149Z,6.34
2023-02-02T15:41:43.204Z,6.30
2023-02-02T15:44:29.951Z,6.24
2023-02-02T15:47:00.747Z,6.18
2023-02-02T15:49:35.374Z,6.12
2023-02-02T15:52:33.077Z,6.08
2023-02-02T15:55:01.842Z,6.05
2023-02-02T15:57:33.150Z,6.00
2023-02-02T16:00:27.533Z,6.00
2023-02-02T16:03:06.940Z,5.98
2023-02-02T16:05:37.229Z,5.93
2023-02-02T16:08:13.906Z,5.91
2023-02-02T16:10:41.441Z,5.92
2023-02-02T16:13:23.871Z,5.98
2023-02-02T16:16:04.667Z,6.00
2023-02-02T16:18:33.224Z,6.00
2023-02-02T16:21:06.663Z,5.96
2023-02-02T16:23:37.595Z,5.93
2023-02-02T16:26:07.319Z,5.98
2023-02-02T16:28:35.487Z,5.99
2023-02-02T16:31:03.700Z,6.00
2023-02-02T16:33:45.758Z,5.99
2023-02-02T16:36:29.775Z,6.04
2023-02-02T16:39:01.070Z,6.07
2023-02-02T16:41:37.016Z,6.01
2023-02-02T16:44:43.065Z,6.00
2023-02-02T16:47:26.017Z,5.99
2023-02-02T16:50:19.339Z,6.02
2023-02-02T16:52:59.422Z,6.01
2023-02-02T16:55:43.675Z,6.01
2023-02-02T16:58:22.784Z,5.95
2023-02-02T17:01:16.687Z,5.89
2023-02-02T17:03:54.658Z,5.81
2023-02-02T17:06:45.642Z,5.74
2023-02-02T17:09:35.507Z,5.71
2023-02-02T17:12:33.348Z,5.69
2023-02-02T17:15:23.124Z,5.64
2023-02-02T17:17:52.042Z,5.59
2023-02-02T17:20:20.527Z,5.54
2023-02-02T17:22:56.609Z,5.49
2023-02-02T17:25:41.997Z,5.49
2023-02-02T17:28:18.009Z,5.42
2023-02-02T17:30:50.019Z,5.41
2023-02-02T17:33:19.350Z,5.38
2023-02-02T17:35:54.800Z,5.31
2023-02-02T17:38:24.870Z,5.21
2023-02-02T17:40:53.479Z,5.19
2023-02-02T17:43:21.392Z,5.15
2023-02-02T17:45:49.346Z,5.13
2023-02-02T17:48:17.013Z,5.09
2023-02-02T17:50:47.108Z,5.11
2023-02-02T17:53:19.286Z,5.15
2023-02-02T17:55:49.856Z,5.15
2023-02-02T17:58:18.066Z,5.18
2023-02-02T18:00:48.902Z,5.21
2023-02-02T18:03:24.739Z,5.21
2023-02-02T18:05:52.680Z,5.24
2023-02-02T18:08:20.095Z,5.26
2023-02-02T18:10:47.457Z,5.27
2023-02-02T18:13:19.367Z,5.30
2023-02-02T18:15:51.272Z,5.28
2023-02-02T18:18:18.909Z,5.31
2023-02-02T18:20:49.930Z,5.35
2023-02-02T18:23:18.976Z,5.37
2023-02-02T18:25:46.562Z,5.38
2023-02-02T18:28:17.105Z,5.39
2023-02-02T18:30:47.406Z,5.38
2023-02-02T18:33:19.520Z,5.37
2023-02-02T18:35:47.969Z,5.36
2023-02-02T18:38:15.651Z,5.34
2023-02-02T18:40:43.331Z,5.34
2023-02-02T18:43:10.644Z,5.32
2023-02-02T18:45:38.008Z,5.33
2023-02-02T18:48:05.553Z,5.30
2023-02-02T18:50:32.971Z,5.30
2023-02-02T18:53:00.313Z,5.31
2023-02-02T18:55:28.058Z,5.30
2023-02-02T18:57:55.791Z,5.29
2023-02-02T19:00:23.271Z,5.31
2023-02-02T19:02:50.625Z,5.30
2023-02-02T19:05:36.953Z,5.30
2023-02-02T19:08:05.863Z,5.31
2023-02-02T19:10:33.356Z,5.30
2023-02-02T19:13:18.276Z,5.30
2023-02-02T19:15:48.514Z,5.34
2023-02-02T19:18:23.749Z,5.33
2023-02-02T19:20:52.583Z,5.30
2023-02-02T19:23:31.053Z,5.35
2023-02-02T19:25:58.927Z,5.37
2023-02-02T19:28:29.801Z,5.33
2023-02-02T19:31:01.758Z,5.39
2023-02-02T19:33:43.608Z,5.43
2023-02-02T19:36:21.007Z,5.51
2023-02-02T19:38:53.376Z,5.55
2023-02-02T19:41:24.828Z,5.54
2023-02-02T19:43:58.991Z,5.56
2023-02-02T19:46:30.426Z,5.50
2023-02-02T19:49:11.959Z,5.40
2023-02-02T19:51:46.278Z,5.29
2023-02-02T19:54:25.553Z,5.18
2023-02-02T19:57:20.849Z,5.10
2023-02-02T19:59:51.407Z,5.03
2023-02-02T20:02:59.536Z,4.99
2023-02-02T20:05:37.795Z,4.93
2023-02-02T20:08:25.495Z,4.84
2023-02-02T20:10:57.810Z,4.80
2023-02-02T20:13:42.130Z,4.73
2023-02-02T20:16:18.933Z,4.61
2023-02-02T20:18:57.015Z,4.49
2023-02-02T20:21:42.259Z,4.36
2023-02-02T20:24:27.440Z,4.24
2023-02-02T20:27:00.766Z,4.13
2023-02-02T20:29:42.553Z,4.02
2023-02-02T20:32:26.710Z,3.90
2023-02-02T20:34:57.224Z,3.80
2023-02-02T20:37:31.949Z,3.74
2023-02-02T20:40:03.982Z,3.68
2023-02-02T20:42:31.362Z,3.58
2023-02-02T20:44:58.892Z,3.47
2023-02-02T20:47:26.352Z,3.39
2023-02-02T20:49:53.689Z,3.32
2023-02-02T20:52:24.125Z,3.31
2023-02-02T20:54:52.407Z,3.21
2023-02-02T20:57:19.847Z,3.14
2023-02-02T20:59:47.335Z,3.08
2023-02-02T21:02:19.473Z,3.08
2023-02-02T21:04:48.441Z,3.05
2023-02-02T21:07:19.732Z,3.01
2023-02-02T21:09:50.389Z,2.96
2023-02-02T21:12:18.404Z,2.97
2023-02-02T21:14:46.232Z,2.92
2023-02-02T21:17:15.568Z,2.88
2023-02-02T21:19:44.016Z,2.73
2023-02-02T21:22:11.936Z,2.63
2023-02-02T21:24:39.446Z,2.62
2023-02-02T21:27:07.603Z,2.63
2023-02-02T21:29:35.371Z,2.85
2023-02-02T21:32:04.194Z,2.70
2023-02-02T21:34:32.559Z,2.64
2023-02-02T21:37:00.093Z,2.58
2023-02-02T21:39:29.317Z,2.48
2023-02-02T21:42:08.978Z,2.45
2023-02-02T21:44:42.698Z,2.30
2023-02-02T21:47:35.705Z,2.27
2023-02-02T21:50:24.263Z,2.26
2023-02-02T21:53:14.876Z,2.23
2023-02-02T21:55:49.779Z,2.16
2023-02-02T21:58:19.040Z,2.08
2023-02-02T22:00:47.315Z,2.05
2023-02-02T22:03:34.810Z,1.97
2023-02-02T22:06:21.248Z,1.93
2023-02-02T22:08:50.700Z,1.92
2023-02-02T22:11:35.068Z,1.86
2023-02-02T22:14:18.816Z,1.86
2023-02-02T22:16:53.521Z,1.86
2023-02-02T22:19:33.102Z,1.85
2023-02-02T22:22:22.788Z,1.86
2023-02-02T22:25:16.121Z,1.87
2023-02-02T22:28:01.452Z,1.93
2023-02-02T22:30:38.943Z,1.93
2023-02-02T22:33:10.017Z,1.91
2023-02-02T22:35:38.283Z,1.92
2023-02-02T22:38:06.165Z,1.92
2023-02-02T22:40:33.619Z,1.83
2023-02-02T22:43:04.494Z,1.78
2023-02-02T22:45:32.680Z,1.68
2023-02-02T22:48:00.209Z,1.60
2023-02-02T22:50:31.582Z,1.59
2023-02-02T22:52:59.924Z,1.64
2023-02-02T22:55:32.255Z,1.66
2023-02-02T22:58:00.004Z,1.60
2023-02-02T23:00:32.248Z,1.60
2023-02-02T23:02:59.715Z,1.62
2023-02-02T23:05:28.221Z,1.59
2023-02-02T23:07:56.539Z,1.60
2023-02-02T23:10:27.745Z,1.54
2023-02-02T23:12:58.422Z,1.48
2023-02-02T23:15:27.063Z,1.47
2023-02-02T23:17:55.072Z,1.48
2023-02-02T23:20:23.140Z,1.51
2023-02-02T23:22:51.087Z,1.48
2023-02-02T23:25:22.120Z,1.43
2023-02-02T23:27:49.771Z,1.40
2023-02-02T23:30:17.948Z,1.36
2023-02-02T23:32:45.248Z,1.35
2023-02-02T23:35:12.554Z,1.30
2023-02-02T23:37:40.089Z,1.23
2023-02-02T23:40:08.622Z,1.22
2023-02-02T23:42:36.044Z,1.23
2023-02-02T23:45:04.132Z,1.22
2023-02-02T23:47:34.414Z,1.21
2023-02-02T23:50:06.360Z,1.19
2023-02-02T23:52:35.431Z,1.19
2023-02-02T23:55:04.345Z,1.17
2023-02-02T23:57:33.795Z,1.10
